sensor_id;sensor_type;location;lat;lon;timestamp;temperature;humidity
6756;DHT22;3415;51.148;7.014;2023-07-13T00:02:06;15.80;99.90
6756;DHT22;3415;51.148;7.014;2023-07-13T00:04:34;15.80;99.90
6756;DHT22;3415;51.148;7.014;2023-07-13T00:07:01;15.70;99.90
6756;DHT22;3415;51.148;7.014;2023-07-13T00:09:29;15.60;99.90
6756;DHT22;3415;51.148;7.014;2023-07-13T00:11:57;15.60;99.90
6756;DHT22;3415;51.148;7.014;2023-07-13T00:14:27;15.60;99.90
6756;DHT22;3415;51.148;7.014;2023-07-13T00:16:55;15.60;99.90
6756;DHT22;3415;51.148;7.014;2023-07-13T00:19:22;15.60;99.90
6756;DHT22;3415;51.148;7.014;2023-07-13T00:21:49;15.80;99.90
6756;DHT22;3415;51.148;7.014;2023-07-13T00:24:17;15.90;99.90
6756;DHT22;3415;51.148;7.014;2023-07-13T00:26:49;15.60;99.90
6756;DHT22;3415;51.148;7.014;2023-07-13T00:29:16;15.50;99.90
6756;DHT22;3415;51.148;7.014;2023-07-13T00:31:44;15.50;99.90
6756;DHT22;3415;51.148;7.014;2023-07-13T00:34:11;15.40;99.90
6756;DHT22;3415;51.148;7.014;2023-07-13T00:36:39;15.40;99.90
6756;DHT22;3415;51.148;7.014;2023-07-13T00:39:06;15.70;99.90
6756;DHT22;3415;51.148;7.014;2023-07-13T00:41:33;15.40;99.90
6756;DHT22;3415;51.148;7.014;2023-07-13T00:44:01;15.50;99.90
6756;DHT22;3415;51.148;7.014;2023-07-13T00:46:30;15.50;99.90
6756;DHT22;3415;51.148;7.014;2023-07-13T00:49:03;15.60;99.90
6756;DHT22;3415;51.148;7.014;2023-07-13T00:51:36;15.50;99.90
6756;DHT22;3415;51.148;7.014;2023-07-13T00:54:11;15.50;99.90
6756;DHT22;3415;51.148;7.014;2023-07-13T00:56:41;15.50;99.90
6756;DHT22;3415;51.148;7.014;2023-07-13T00:59:11;15.40;99.90
6756;DHT22;3415;51.148;7.014;2023-07-13T01:01:39;15.40;99.90
6756;DHT22;3415;51.148;7.014;2023-07-13T01:04:07;15.40;99.90
6756;DHT22;3415;51.148;7.014;2023-07-13T01:06:35;15.40;99.90
6756;DHT22;3415;51.148;7.014;2023-07-13T01:09:03;15.50;99.90
6756;DHT22;3415;51.148;7.014;2023-07-13T01:11:30;15.40;99.90
6756;DHT22;3415;51.148;7.014;2023-07-13T01:13:57;15.40;99.90
6756;DHT22;3415;51.148;7.014;2023-07-13T01:16:29;15.30;99.90
6756;DHT22;3415;51.148;7.014;2023-07-13T01:18:58;15.30;99.90
6756;DHT22;3415;51.148;7.014;2023-07-13T01:21:29;15.20;99.90
6756;DHT22;3415;51.148;7.014;2023-07-13T01:23:59;15.40;99.90
6756;DHT22;3415;51.148;7.014;2023-07-13T01:26:26;15.10;99.90
6756;DHT22;3415;51.148;7.014;2023-07-13T01:28:53;15.10;99.90
6756;DHT22;3415;51.148;7.014;2023-07-13T01:31:22;15.00;99.90
6756;DHT22;3415;51.148;7.014;2023-07-13T01:33:49;15.00;99.90
6756;DHT22;3415;51.148;7.014;2023-07-13T01:36:16;15.00;99.90
6756;DHT22;3415;51.148;7.014;2023-07-13T01:38:44;15.00;99.90
6756;DHT22;3415;51.148;7.014;2023-07-13T01:41:11;15.10;99.90
6756;DHT22;3415;51.148;7.014;2023-07-13T01:43:38;15.10;1.00
6756;DHT22;3415;51.148;7.014;2023-07-13T01:46:05;15.00;1.00
6756;DHT22;3415;51.148;7.014;2023-07-13T01:48:32;15.00;1.00
6756;DHT22;3415;51.148;7.014;2023-07-13T01:50:59;14.90;1.00
6756;DHT22;3415;51.148;7.014;2023-07-13T01:53:26;14.80;1.00
6756;DHT22;3415;51.148;7.014;2023-07-13T01:55:55;14.80;1.00
6756;DHT22;3415;51.148;7.014;2023-07-13T01:58:22;14.80;1.00
6756;DHT22;3415;51.148;7.014;2023-07-13T02:00:49;14.70;1.00
6756;DHT22;3415;51.148;7.014;2023-07-13T02:03:16;14.70;1.00
6756;DHT22;3415;51.148;7.014;2023-07-13T02:05:43;14.70;1.00
6756;DHT22;3415;51.148;7.014;2023-07-13T02:08:11;14.70;1.00
6756;DHT22;3415;51.148;7.014;2023-07-13T02:10:38;14.60;1.00
6756;DHT22;3415;51.148;7.014;2023-07-13T02:13:07;14.60;1.00
6756;DHT22;3415;51.148;7.014;2023-07-13T02:15:38;14.60;1.00
6756;DHT22;3415;51.148;7.014;2023-07-13T02:18:06;14.50;1.00
6756;DHT22;3415;51.148;7.014;2023-07-13T02:20:33;14.50;1.00
6756;DHT22;3415;51.148;7.014;2023-07-13T02:23:01;14.50;1.00
6756;DHT22;3415;51.148;7.014;2023-07-13T02:25:28;14.80;1.00
6756;DHT22;3415;51.148;7.014;2023-07-13T02:27:55;14.60;1.00
6756;DHT22;3415;51.148;7.014;2023-07-13T02:30:23;14.60;1.00
6756;DHT22;3415;51.148;7.014;2023-07-13T02:32:50;14.90;1.00
6756;DHT22;3415;51.148;7.014;2023-07-13T02:35:18;14.60;1.00
6756;DHT22;3415;51.148;7.014;2023-07-13T02:37:44;14.60;1.00
6756;DHT22;3415;51.148;7.014;2023-07-13T02:40:12;14.70;1.00
6756;DHT22;3415;51.148;7.014;2023-07-13T02:42:39;14.60;1.00
6756;DHT22;3415;51.148;7.014;2023-07-13T02:45:07;14.70;1.00
6756;DHT22;3415;51.148;7.014;2023-07-13T02:47:36;14.60;1.00
6756;DHT22;3415;51.148;7.014;2023-07-13T02:50:04;14.60;1.00
6756;DHT22;3415;51.148;7.014;2023-07-13T02:52:31;14.60;1.00
6756;DHT22;3415;51.148;7.014;2023-07-13T02:54:59;14.80;1.00
6756;DHT22;3415;51.148;7.014;2023-07-13T02:57:26;14.60;1.00
6756;DHT22;3415;51.148;7.014;2023-07-13T02:59:53;14.60;1.00
6756;DHT22;3415;51.148;7.014;2023-07-13T03:02:21;14.60;1.00
6756;DHT22;3415;51.148;7.014;2023-07-13T03:04:49;14.60;1.00
6756;DHT22;3415;51.148;7.014;2023-07-13T03:07:16;14.70;1.00
6756;DHT22;3415;51.148;7.014;2023-07-13T03:09:43;14.50;1.00
6756;DHT22;3415;51.148;7.014;2023-07-13T03:12:10;14.50;1.00
6756;DHT22;3415;51.148;7.014;2023-07-13T03:14:37;14.50;1.00
6756;DHT22;3415;51.148;7.014;2023-07-13T03:17:04;14.40;1.00
6756;DHT22;3415;51.148;7.014;2023-07-13T03:19:31;14.40;1.00
6756;DHT22;3415;51.148;7.014;2023-07-13T03:22:00;14.30;1.00
6756;DHT22;3415;51.148;7.014;2023-07-13T03:24:27;14.30;1.00
6756;DHT22;3415;51.148;7.014;2023-07-13T03:26:54;14.40;1.00
6756;DHT22;3415;51.148;7.014;2023-07-13T03:29:21;14.40;1.00
6756;DHT22;3415;51.148;7.014;2023-07-13T03:31:48;14.40;1.00
6756;DHT22;3415;51.148;7.014;2023-07-13T03:34:14;14.40;1.00
6756;DHT22;3415;51.148;7.014;2023-07-13T03:36:41;14.40;1.00
6756;DHT22;3415;51.148;7.014;2023-07-13T03:39:10;14.40;1.00
6756;DHT22;3415;51.148;7.014;2023-07-13T03:41:37;14.40;1.00
6756;DHT22;3415;51.148;7.014;2023-07-13T03:44:04;14.40;1.00
6756;DHT22;3415;51.148;7.014;2023-07-13T03:46:31;14.40;1.00
6756;DHT22;3415;51.148;7.014;2023-07-13T03:48:59;14.50;1.00
6756;DHT22;3415;51.148;7.014;2023-07-13T03:51:26;14.50;1.00
6756;DHT22;3415;51.148;7.014;2023-07-13T03:53:53;14.50;1.00
6756;DHT22;3415;51.148;7.014;2023-07-13T03:56:21;14.50;1.00
6756;DHT22;3415;51.148;7.014;2023-07-13T03:58:50;14.50;1.00
6756;DHT22;3415;51.148;7.014;2023-07-13T04:01:19;14.50;1.00
6756;DHT22;3415;51.148;7.014;2023-07-13T04:03:46;14.50;1.00
6756;DHT22;3415;51.148;7.014;2023-07-13T04:06:18;14.50;1.00
6756;DHT22;3415;51.148;7.014;2023-07-13T04:08:48;14.60;1.00
6756;DHT22;3415;51.148;7.014;2023-07-13T04:11:17;14.60;1.00
6756;DHT22;3415;51.148;7.014;2023-07-13T04:13:46;14.60;1.00
6756;DHT22;3415;51.148;7.014;2023-07-13T04:16:14;14.60;1.00
6756;DHT22;3415;51.148;7.014;2023-07-13T04:18:42;14.60;1.00
6756;DHT22;3415;51.148;7.014;2023-07-13T04:21:09;14.70;1.00
6756;DHT22;3415;51.148;7.014;2023-07-13T04:23:37;14.70;1.00
6756;DHT22;3415;51.148;7.014;2023-07-13T04:26:05;14.80;1.00
6756;DHT22;3415;51.148;7.014;2023-07-13T04:28:33;14.70;1.00
6756;DHT22;3415;51.148;7.014;2023-07-13T04:31:02;14.80;1.00
6756;DHT22;3415;51.148;7.014;2023-07-13T04:33:30;14.90;1.00
6756;DHT22;3415;51.148;7.014;2023-07-13T04:35:57;14.80;1.00
6756;DHT22;3415;51.148;7.014;2023-07-13T04:38:26;15.10;1.00
6756;DHT22;3415;51.148;7.014;2023-07-13T04:40:55;14.90;1.00
6756;DHT22;3415;51.148;7.014;2023-07-13T04:43:23;14.90;1.00
6756;DHT22;3415;51.148;7.014;2023-07-13T04:45:51;15.00;1.00
6756;DHT22;3415;51.148;7.014;2023-07-13T04:48:20;15.20;1.00
6756;DHT22;3415;51.148;7.014;2023-07-13T04:50:48;15.30;1.00
6756;DHT22;3415;51.148;7.014;2023-07-13T04:53:21;15.30;1.00
6756;DHT22;3415;51.148;7.014;2023-07-13T04:55:48;15.50;1.00
6756;DHT22;3415;51.148;7.014;2023-07-13T04:58:15;15.60;1.00
6756;DHT22;3415;51.148;7.014;2023-07-13T05:00:42;15.60;1.00
6756;DHT22;3415;51.148;7.014;2023-07-13T05:03:09;15.90;1.00
6756;DHT22;3415;51.148;7.014;2023-07-13T05:05:37;15.80;1.00
6756;DHT22;3415;51.148;7.014;2023-07-13T05:08:04;15.90;1.00
6756;DHT22;3415;51.148;7.014;2023-07-13T05:10:33;15.90;1.00
6756;DHT22;3415;51.148;7.014;2023-07-13T05:13:00;16.00;1.00
6756;DHT22;3415;51.148;7.014;2023-07-13T05:15:27;16.00;1.00
6756;DHT22;3415;51.148;7.014;2023-07-13T05:17:54;16.00;1.00
6756;DHT22;3415;51.148;7.014;2023-07-13T05:20:21;16.00;1.00
6756;DHT22;3415;51.148;7.014;2023-07-13T05:22:49;16.20;1.00
6756;DHT22;3415;51.148;7.014;2023-07-13T05:25:17;16.60;1.00
6756;DHT22;3415;51.148;7.014;2023-07-13T05:27:44;16.30;1.00
6756;DHT22;3415;51.148;7.014;2023-07-13T05:30:13;16.50;1.00
6756;DHT22;3415;51.148;7.014;2023-07-13T05:32:40;16.40;1.00
6756;DHT22;3415;51.148;7.014;2023-07-13T05:35:07;16.50;1.00
6756;DHT22;3415;51.148;7.014;2023-07-13T05:37:35;16.60;1.00
6756;DHT22;3415;51.148;7.014;2023-07-13T05:40:05;17.00;1.00
6756;DHT22;3415;51.148;7.014;2023-07-13T05:42:34;17.00;1.00
6756;DHT22;3415;51.148;7.014;2023-07-13T05:45:01;17.30;1.00
6756;DHT22;3415;51.148;7.014;2023-07-13T05:47:28;17.30;1.00
6756;DHT22;3415;51.148;7.014;2023-07-13T05:49:55;17.40;1.00
6756;DHT22;3415;51.148;7.014;2023-07-13T05:52:22;17.40;1.00
6756;DHT22;3415;51.148;7.014;2023-07-13T05:54:49;17.50;1.00
6756;DHT22;3415;51.148;7.014;2023-07-13T05:57:18;17.40;1.00
6756;DHT22;3415;51.148;7.014;2023-07-13T05:59:45;17.30;1.00
6756;DHT22;3415;51.148;7.014;2023-07-13T06:02:12;17.30;1.00
6756;DHT22;3415;51.148;7.014;2023-07-13T06:04:38;17.20;1.00
6756;DHT22;3415;51.148;7.014;2023-07-13T06:07:05;17.30;1.00
6756;DHT22;3415;51.148;7.014;2023-07-13T06:09:32;17.20;1.00
6756;DHT22;3415;51.148;7.014;2023-07-13T06:11:59;17.40;1.00
6756;DHT22;3415;51.148;7.014;2023-07-13T06:14:28;17.50;1.00
6756;DHT22;3415;51.148;7.014;2023-07-13T06:16:55;17.70;1.00
6756;DHT22;3415;51.148;7.014;2023-07-13T06:19:22;17.90;1.00
6756;DHT22;3415;51.148;7.014;2023-07-13T06:21:49;18.50;1.00
6756;DHT22;3415;51.148;7.014;2023-07-13T06:24:16;19.00;1.00
6756;DHT22;3415;51.148;7.014;2023-07-13T06:26:43;19.00;1.00
6756;DHT22;3415;51.148;7.014;2023-07-13T06:29:10;19.00;99.90
6756;DHT22;3415;51.148;7.014;2023-07-13T06:31:38;19.20;99.90
6756;DHT22;3415;51.148;7.014;2023-07-13T06:34:05;19.50;99.90
6756;DHT22;3415;51.148;7.014;2023-07-13T06:36:32;19.40;99.90
6756;DHT22;3415;51.148;7.014;2023-07-13T06:38:59;19.50;99.90
6756;DHT22;3415;51.148;7.014;2023-07-13T06:41:26;19.70;99.90
6756;DHT22;3415;51.148;7.014;2023-07-13T06:43:53;20.00;99.90
6756;DHT22;3415;51.148;7.014;2023-07-13T06:46:20;20.30;99.90
6756;DHT22;3415;51.148;7.014;2023-07-13T06:48:49;20.40;99.90
6756;DHT22;3415;51.148;7.014;2023-07-13T06:51:17;21.30;99.90
6756;DHT22;3415;51.148;7.014;2023-07-13T06:53:44;21.40;99.90
6756;DHT22;3415;51.148;7.014;2023-07-13T06:56:11;21.80;99.90
6756;DHT22;3415;51.148;7.014;2023-07-13T06:58:38;21.50;99.90
6756;DHT22;3415;51.148;7.014;2023-07-13T07:01:05;21.60;99.90
6756;DHT22;3415;51.148;7.014;2023-07-13T07:03:32;21.50;99.90
6756;DHT22;3415;51.148;7.014;2023-07-13T07:06:12;21.50;99.90
6756;DHT22;3415;51.148;7.014;2023-07-13T07:08:40;21.40;99.90
6756;DHT22;3415;51.148;7.014;2023-07-13T07:11:08;21.30;99.90
6756;DHT22;3415;51.148;7.014;2023-07-13T07:13:37;21.60;99.90
6756;DHT22;3415;51.148;7.014;2023-07-13T07:16:04;21.60;99.90
6756;DHT22;3415;51.148;7.014;2023-07-13T07:18:32;21.70;99.90
6756;DHT22;3415;51.148;7.014;2023-07-13T07:20:59;22.00;99.90
6756;DHT22;3415;51.148;7.014;2023-07-13T07:23:27;22.00;99.90
6756;DHT22;3415;51.148;7.014;2023-07-13T07:25:54;22.00;99.90
6756;DHT22;3415;51.148;7.014;2023-07-13T07:28:21;22.30;99.90
6756;DHT22;3415;51.148;7.014;2023-07-13T07:30:49;22.30;99.90
6756;DHT22;3415;51.148;7.014;2023-07-13T07:33:19;21.90;99.90
6756;DHT22;3415;51.148;7.014;2023-07-13T07:35:46;21.70;99.90
6756;DHT22;3415;51.148;7.014;2023-07-13T07:38:13;21.60;99.90
6756;DHT22;3415;51.148;7.014;2023-07-13T07:40:42;21.60;99.90
6756;DHT22;3415;51.148;7.014;2023-07-13T07:43:11;21.50;99.90
6756;DHT22;3415;51.148;7.014;2023-07-13T07:45:39;21.20;99.90
6756;DHT22;3415;51.148;7.014;2023-07-13T07:48:07;21.00;99.90
6756;DHT22;3415;51.148;7.014;2023-07-13T07:50:35;21.50;99.90
6756;DHT22;3415;51.148;7.014;2023-07-13T07:53:04;21.60;99.90
6756;DHT22;3415;51.148;7.014;2023-07-13T07:55:34;21.50;99.90
6756;DHT22;3415;51.148;7.014;2023-07-13T07:58:02;21.40;99.90
6756;DHT22;3415;51.148;7.014;2023-07-13T08:00:29;22.30;99.90
6756;DHT22;3415;51.148;7.014;2023-07-13T08:02:57;22.90;99.90
6756;DHT22;3415;51.148;7.014;2023-07-13T08:05:24;23.20;99.90
6756;DHT22;3415;51.148;7.014;2023-07-13T08:07:51;23.30;99.90
6756;DHT22;3415;51.148;7.014;2023-07-13T08:10:18;22.90;99.90
6756;DHT22;3415;51.148;7.014;2023-07-13T08:12:45;21.40;99.90
6756;DHT22;3415;51.148;7.014;2023-07-13T08:15:15;21.40;99.90
6756;DHT22;3415;51.148;7.014;2023-07-13T08:17:46;21.30;99.90
6756;DHT22;3415;51.148;7.014;2023-07-13T08:20:13;21.40;99.90
6756;DHT22;3415;51.148;7.014;2023-07-13T08:22:41;21.20;99.90
6756;DHT22;3415;51.148;7.014;2023-07-13T08:25:08;21.10;99.90
6756;DHT22;3415;51.148;7.014;2023-07-13T08:27:35;21.20;99.90
6756;DHT22;3415;51.148;7.014;2023-07-13T08:30:03;21.30;99.90
6756;DHT22;3415;51.148;7.014;2023-07-13T08:32:32;21.10;99.90
6756;DHT22;3415;51.148;7.014;2023-07-13T08:34:59;21.50;99.90
6756;DHT22;3415;51.148;7.014;2023-07-13T08:37:26;21.50;99.90
6756;DHT22;3415;51.148;7.014;2023-07-13T08:39:53;21.90;99.90
6756;DHT22;3415;51.148;7.014;2023-07-13T08:42:29;22.00;99.90
6756;DHT22;3415;51.148;7.014;2023-07-13T08:45:07;22.80;99.90
6756;DHT22;3415;51.148;7.014;2023-07-13T08:47:44;23.00;99.90
6756;DHT22;3415;51.148;7.014;2023-07-13T08:50:17;23.20;99.90
6756;DHT22;3415;51.148;7.014;2023-07-13T08:52:46;22.90;99.90
6756;DHT22;3415;51.148;7.014;2023-07-13T08:55:16;23.80;99.90
6756;DHT22;3415;51.148;7.014;2023-07-13T08:57:48;24.00;99.90
6756;DHT22;3415;51.148;7.014;2023-07-13T09:00:21;24.30;99.90
6756;DHT22;3415;51.148;7.014;2023-07-13T09:02:54;24.40;99.90
6756;DHT22;3415;51.148;7.014;2023-07-13T09:05:27;24.10;99.90
6756;DHT22;3415;51.148;7.014;2023-07-13T09:08:16;24.10;99.90
6756;DHT22;3415;51.148;7.014;2023-07-13T09:11:11;23.70;99.90
6756;DHT22;3415;51.148;7.014;2023-07-13T09:13:50;23.70;99.90
6756;DHT22;3415;51.148;7.014;2023-07-13T09:16:24;24.30;99.90
6756;DHT22;3415;51.148;7.014;2023-07-13T09:18:56;24.60;99.90
6756;DHT22;3415;51.148;7.014;2023-07-13T09:21:29;25.10;99.90
6756;DHT22;3415;51.148;7.014;2023-07-13T09:24:03;25.60;99.90
6756;DHT22;3415;51.148;7.014;2023-07-13T09:26:48;25.90;99.90
6756;DHT22;3415;51.148;7.014;2023-07-13T09:29:23;25.20;99.90
6756;DHT22;3415;51.148;7.014;2023-07-13T09:31:55;25.00;99.90
6756;DHT22;3415;51.148;7.014;2023-07-13T09:34:26;25.00;99.90
6756;DHT22;3415;51.148;7.014;2023-07-13T09:36:54;24.80;99.90
6756;DHT22;3415;51.148;7.014;2023-07-13T09:39:27;25.10;99.90
6756;DHT22;3415;51.148;7.014;2023-07-13T09:42:00;24.60;99.90
6756;DHT22;3415;51.148;7.014;2023-07-13T09:44:30;24.60;99.90
6756;DHT22;3415;51.148;7.014;2023-07-13T09:46:58;24.80;99.90
6756;DHT22;3415;51.148;7.014;2023-07-13T09:49:28;25.10;99.90
6756;DHT22;3415;51.148;7.014;2023-07-13T09:52:01;25.40;99.90
6756;DHT22;3415;51.148;7.014;2023-07-13T09:54:35;25.20;99.90
6756;DHT22;3415;51.148;7.014;2023-07-13T09:57:12;24.40;99.90
6756;DHT22;3415;51.148;7.014;2023-07-13T09:59:44;23.80;99.90
6756;DHT22;3415;51.148;7.014;2023-07-13T10:02:28;23.70;99.90
6756;DHT22;3415;51.148;7.014;2023-07-13T10:04:59;24.20;99.90
6756;DHT22;3415;51.148;7.014;2023-07-13T10:07:29;24.20;99.90
6756;DHT22;3415;51.148;7.014;2023-07-13T10:09:57;24.40;99.90
6756;DHT22;3415;51.148;7.014;2023-07-13T10:12:27;24.70;99.90
6756;DHT22;3415;51.148;7.014;2023-07-13T10:14:57;24.90;99.90
6756;DHT22;3415;51.148;7.014;2023-07-13T10:17:29;25.80;99.90
6756;DHT22;3415;51.148;7.014;2023-07-13T10:20:01;25.70;99.90
6756;DHT22;3415;51.148;7.014;2023-07-13T10:22:37;27.20;99.90
6756;DHT22;3415;51.148;7.014;2023-07-13T10:25:18;27.90;99.90
6756;DHT22;3415;51.148;7.014;2023-07-13T10:27:49;28.00;99.90
6756;DHT22;3415;51.148;7.014;2023-07-13T10:30:21;25.90;99.90
6756;DHT22;3415;51.148;7.014;2023-07-13T10:32:51;25.60;99.90
6756;DHT22;3415;51.148;7.014;2023-07-13T10:35:22;26.80;99.90
6756;DHT22;3415;51.148;7.014;2023-07-13T10:37:52;26.90;99.90
6756;DHT22;3415;51.148;7.014;2023-07-13T10:40:25;27.40;99.90
6756;DHT22;3415;51.148;7.014;2023-07-13T10:42:57;26.90;99.90
6756;DHT22;3415;51.148;7.014;2023-07-13T10:45:27;25.80;99.90
6756;DHT22;3415;51.148;7.014;2023-07-13T10:47:57;25.70;99.90
6756;DHT22;3415;51.148;7.014;2023-07-13T10:50:27;26.40;99.90
6756;DHT22;3415;51.148;7.014;2023-07-13T10:53:01;26.90;99.90
6756;DHT22;3415;51.148;7.014;2023-07-13T10:55:35;27.10;99.90
6756;DHT22;3415;51.148;7.014;2023-07-13T10:58:12;27.10;99.90
6756;DHT22;3415;51.148;7.014;2023-07-13T11:00:47;26.70;99.90
6756;DHT22;3415;51.148;7.014;2023-07-13T11:03:19;26.20;99.90
6756;DHT22;3415;51.148;7.014;2023-07-13T11:05:51;26.60;99.90
6756;DHT22;3415;51.148;7.014;2023-07-13T11:08:31;27.00;99.90
6756;DHT22;3415;51.148;7.014;2023-07-13T11:10:59;27.40;99.90
6756;DHT22;3415;51.148;7.014;2023-07-13T11:13:56;27.30;99.90
6756;DHT22;3415;51.148;7.014;2023-07-13T11:16:36;26.80;99.90
6756;DHT22;3415;51.148;7.014;2023-07-13T11:22:20;24.60;99.90
6756;DHT22;3415;51.148;7.014;2023-07-13T11:24:57;24.50;99.90
6756;DHT22;3415;51.148;7.014;2023-07-13T11:27:35;24.20;99.90
6756;DHT22;3415;51.148;7.014;2023-07-13T11:30:13;23.80;99.90
6756;DHT22;3415;51.148;7.014;2023-07-13T11:32:50;23.70;99.90
6756;DHT22;3415;51.148;7.014;2023-07-13T11:35:23;23.60;99.90
6756;DHT22;3415;51.148;7.014;2023-07-13T11:37:52;23.60;99.90
6756;DHT22;3415;51.148;7.014;2023-07-13T11:40:22;23.70;99.90
6756;DHT22;3415;51.148;7.014;2023-07-13T11:42:52;23.70;99.90
6756;DHT22;3415;51.148;7.014;2023-07-13T11:45:21;23.50;99.90
6756;DHT22;3415;51.148;7.014;2023-07-13T11:47:49;23.70;99.90
6756;DHT22;3415;51.148;7.014;2023-07-13T11:50:18;23.60;99.90
6756;DHT22;3415;51.148;7.014;2023-07-13T11:52:48;23.50;99.90
6756;DHT22;3415;51.148;7.014;2023-07-13T11:55:20;23.50;99.90
6756;DHT22;3415;51.148;7.014;2023-07-13T11:57:50;23.20;99.90
6756;DHT22;3415;51.148;7.014;2023-07-13T12:00:22;23.10;99.90
6756;DHT22;3415;51.148;7.014;2023-07-13T12:02:55;22.90;99.90
6756;DHT22;3415;51.148;7.014;2023-07-13T12:05:25;22.90;99.90
6756;DHT22;3415;51.148;7.014;2023-07-13T12:07:53;23.30;99.90
6756;DHT22;3415;51.148;7.014;2023-07-13T12:10:23;24.80;99.90
6756;DHT22;3415;51.148;7.014;2023-07-13T12:12:56;26.90;99.90
6756;DHT22;3415;51.148;7.014;2023-07-13T12:15:32;26.60;99.90
6756;DHT22;3415;51.148;7.014;2023-07-13T12:18:03;25.70;99.90
6756;DHT22;3415;51.148;7.014;2023-07-13T12:20:38;25.60;99.90
6756;DHT22;3415;51.148;7.014;2023-07-13T12:23:21;26.70;99.90
6756;DHT22;3415;51.148;7.014;2023-07-13T12:25:51;27.00;99.90
6756;DHT22;3415;51.148;7.014;2023-07-13T12:28:22;26.40;99.90
6756;DHT22;3415;51.148;7.014;2023-07-13T12:30:49;26.00;99.90
6756;DHT22;3415;51.148;7.014;2023-07-13T12:33:27;25.60;99.90
6756;DHT22;3415;51.148;7.014;2023-07-13T12:35:55;25.00;99.90
6756;DHT22;3415;51.148;7.014;2023-07-13T12:38:25;24.80;99.90
6756;DHT22;3415;51.148;7.014;2023-07-13T12:40:53;24.80;99.90
6756;DHT22;3415;51.148;7.014;2023-07-13T12:43:21;24.50;99.90
6756;DHT22;3415;51.148;7.014;2023-07-13T12:45:56;24.50;99.90
6756;DHT22;3415;51.148;7.014;2023-07-13T12:48:25;24.30;99.90
6756;DHT22;3415;51.148;7.014;2023-07-13T12:50:54;24.60;99.90
6756;DHT22;3415;51.148;7.014;2023-07-13T12:53:23;24.60;99.90
6756;DHT22;3415;51.148;7.014;2023-07-13T12:56:01;24.40;99.90
6756;DHT22;3415;51.148;7.014;2023-07-13T12:58:32;24.10;99.90
6756;DHT22;3415;51.148;7.014;2023-07-13T13:01:05;23.40;99.90
6756;DHT22;3415;51.148;7.014;2023-07-13T13:03:33;23.40;99.90
6756;DHT22;3415;51.148;7.014;2023-07-13T13:06:03;23.70;99.90
6756;DHT22;3415;51.148;7.014;2023-07-13T13:08:33;23.90;99.90
6756;DHT22;3415;51.148;7.014;2023-07-13T13:11:02;24.00;99.90
6756;DHT22;3415;51.148;7.014;2023-07-13T13:13:30;24.00;99.90
6756;DHT22;3415;51.148;7.014;2023-07-13T13:16:02;24.20;99.90
6756;DHT22;3415;51.148;7.014;2023-07-13T13:18:31;24.30;99.90
6756;DHT22;3415;51.148;7.014;2023-07-13T13:20:58;24.10;99.90
6756;DHT22;3415;51.148;7.014;2023-07-13T13:23:26;24.20;99.90
6756;DHT22;3415;51.148;7.014;2023-07-13T13:25:55;24.10;99.90
6756;DHT22;3415;51.148;7.014;2023-07-13T13:28:22;24.30;99.90
6756;DHT22;3415;51.148;7.014;2023-07-13T13:30:50;24.50;99.90
6756;DHT22;3415;51.148;7.014;2023-07-13T13:33:19;25.00;99.90
6756;DHT22;3415;51.148;7.014;2023-07-13T13:35:47;24.90;99.90
6756;DHT22;3415;51.148;7.014;2023-07-13T13:38:17;24.90;99.90
6756;DHT22;3415;51.148;7.014;2023-07-13T13:40:47;25.20;99.90
6756;DHT22;3415;51.148;7.014;2023-07-13T13:43:16;25.10;99.90
6756;DHT22;3415;51.148;7.014;2023-07-13T13:45:45;25.20;99.90
6756;DHT22;3415;51.148;7.014;2023-07-13T13:48:18;25.00;99.90
6756;DHT22;3415;51.148;7.014;2023-07-13T13:50:47;25.10;99.90
6756;DHT22;3415;51.148;7.014;2023-07-13T13:53:15;25.10;99.90
6756;DHT22;3415;51.148;7.014;2023-07-13T13:55:42;25.10;99.90
6756;DHT22;3415;51.148;7.014;2023-07-13T13:58:09;25.10;99.90
6756;DHT22;3415;51.148;7.014;2023-07-13T14:00:38;25.10;99.90
6756;DHT22;3415;51.148;7.014;2023-07-13T14:03:05;24.50;99.90
6756;DHT22;3415;51.148;7.014;2023-07-13T14:05:38;24.20;99.90
6756;DHT22;3415;51.148;7.014;2023-07-13T14:08:11;24.00;99.90
6756;DHT22;3415;51.148;7.014;2023-07-13T14:10:40;24.00;99.90
6756;DHT22;3415;51.148;7.014;2023-07-13T14:13:16;24.00;99.90
6756;DHT22;3415;51.148;7.014;2023-07-13T14:15:45;24.00;99.90
6756;DHT22;3415;51.148;7.014;2023-07-13T14:18:13;24.10;99.90
6756;DHT22;3415;51.148;7.014;2023-07-13T14:20:43;24.40;99.90
6756;DHT22;3415;51.148;7.014;2023-07-13T14:23:12;24.30;99.90
6756;DHT22;3415;51.148;7.014;2023-07-13T14:25:39;24.30;99.90
6756;DHT22;3415;51.148;7.014;2023-07-13T14:28:19;24.30;99.90
6756;DHT22;3415;51.148;7.014;2023-07-13T14:30:49;24.10;99.90
6756;DHT22;3415;51.148;7.014;2023-07-13T14:33:17;23.90;99.90
6756;DHT22;3415;51.148;7.014;2023-07-13T14:35:44;23.60;99.90
6756;DHT22;3415;51.148;7.014;2023-07-13T14:38:13;23.50;99.90
6756;DHT22;3415;51.148;7.014;2023-07-13T14:40:42;23.50;99.90
6756;DHT22;3415;51.148;7.014;2023-07-13T14:43:13;23.60;99.90
6756;DHT22;3415;51.148;7.014;2023-07-13T14:45:43;23.80;99.90
6756;DHT22;3415;51.148;7.014;2023-07-13T14:48:16;24.00;99.90
6756;DHT22;3415;51.148;7.014;2023-07-13T14:50:44;24.00;99.90
6756;DHT22;3415;51.148;7.014;2023-07-13T14:53:12;24.10;99.90
6756;DHT22;3415;51.148;7.014;2023-07-13T14:55:40;24.20;99.90
6756;DHT22;3415;51.148;7.014;2023-07-13T14:58:08;24.20;99.90
6756;DHT22;3415;51.148;7.014;2023-07-13T15:00:36;24.20;99.90
6756;DHT22;3415;51.148;7.014;2023-07-13T15:03:04;24.00;99.90
6756;DHT22;3415;51.148;7.014;2023-07-13T15:05:34;23.90;99.90
6756;DHT22;3415;51.148;7.014;2023-07-13T15:08:02;23.70;99.90
6756;DHT22;3415;51.148;7.014;2023-07-13T15:10:32;23.70;99.90
6756;DHT22;3415;51.148;7.014;2023-07-13T15:13:14;23.30;99.90
6756;DHT22;3415;51.148;7.014;2023-07-13T15:15:46;23.30;99.90
6756;DHT22;3415;51.148;7.014;2023-07-13T15:18:17;23.40;99.90
6756;DHT22;3415;51.148;7.014;2023-07-13T15:20:47;22.90;99.90
6756;DHT22;3415;51.148;7.014;2023-07-13T15:23:16;22.20;99.90
6756;DHT22;3415;51.148;7.014;2023-07-13T15:25:44;21.20;99.90
6756;DHT22;3415;51.148;7.014;2023-07-13T15:28:12;20.50;99.90
6756;DHT22;3415;51.148;7.014;2023-07-13T15:30:42;19.90;99.90
6756;DHT22;3415;51.148;7.014;2023-07-13T15:33:13;19.60;99.90
6756;DHT22;3415;51.148;7.014;2023-07-13T15:35:43;19.40;99.90
6756;DHT22;3415;51.148;7.014;2023-07-13T15:38:16;19.60;1.00
6756;DHT22;3415;51.148;7.014;2023-07-13T15:40:45;19.10;1.00
6756;DHT22;3415;51.148;7.014;2023-07-13T15:43:13;18.90;1.00
6756;DHT22;3415;51.148;7.014;2023-07-13T15:45:41;18.80;1.00
6756;DHT22;3415;51.148;7.014;2023-07-13T15:48:13;18.80;1.00
6756;DHT22;3415;51.148;7.014;2023-07-13T15:50:43;18.80;1.00
6756;DHT22;3415;51.148;7.014;2023-07-13T15:53:11;19.10;1.00
6756;DHT22;3415;51.148;7.014;2023-07-13T15:55:40;18.90;1.00
6756;DHT22;3415;51.148;7.014;2023-07-13T15:58:10;19.00;1.00
6756;DHT22;3415;51.148;7.014;2023-07-13T16:00:39;19.30;1.00
6756;DHT22;3415;51.148;7.014;2023-07-13T16:03:07;19.00;1.00
6756;DHT22;3415;51.148;7.014;2023-07-13T16:05:34;18.90;1.00
6756;DHT22;3415;51.148;7.014;2023-07-13T16:08:03;18.80;1.00
6756;DHT22;3415;51.148;7.014;2023-07-13T16:10:34;18.80;1.00
6756;DHT22;3415;51.148;7.014;2023-07-13T16:13:04;18.90;1.00
6756;DHT22;3415;51.148;7.014;2023-07-13T16:15:31;21.40;1.00
6756;DHT22;3415;51.148;7.014;2023-07-13T16:17:58;18.80;1.00
6756;DHT22;3415;51.148;7.014;2023-07-13T16:20:25;18.80;1.00
6756;DHT22;3415;51.148;7.014;2023-07-13T16:22:55;18.60;1.00
6756;DHT22;3415;51.148;7.014;2023-07-13T16:25:23;18.70;1.00